createdAt,value
2018-05-03T00:00:01.586Z,15.59
2018-05-03T00:09:56.766Z,15.51
2018-05-03T00:19:53.309Z,15.46
2018-05-03T00:29:49.739Z,15.64
2018-05-03T00:39:45.199Z,15.33
2018-05-03T00:49:43.095Z,15.26
2018-05-03T00:59:39.732Z,15.30
2018-05-03T01:09:35.641Z,15.28
2018-05-03T01:19:34.457Z,15.28
2018-05-03T01:29:31.464Z,15.12
2018-05-03T01:39:27.090Z,14.93
2018-05-03T01:49:24.078Z,14.79
2018-05-03T01:59:23.821Z,14.46
2018-05-03T02:09:21.545Z,14.27
2018-05-03T02:19:17.981Z,13.89
2018-05-03T02:29:15.322Z,13.86
2018-05-03T02:39:10.218Z,13.77
2018-05-03T02:49:07.568Z,13.48
2018-05-03T02:59:04.435Z,13.41
2018-05-03T03:08:59.791Z,13.17
2018-05-03T03:18:58.033Z,13.11
2018-05-03T03:28:51.945Z,12.89
2018-05-03T03:38:49.701Z,12.91
2018-05-03T03:48:47.568Z,12.74
2018-05-03T03:58:44.611Z,12.71
2018-05-03T04:08:39.797Z,12.73
2018-05-03T04:18:39.345Z,12.53
2018-05-03T04:28:23.034Z,12.74
2018-05-03T04:38:22.080Z,12.92
2018-05-03T04:48:20.720Z,13.14
2018-05-03T04:58:18.851Z,13.37
2018-05-03T05:08:14.557Z,13.56
2018-05-03T05:18:10.617Z,13.74
2018-05-03T05:28:09.869Z,14.09
2018-05-03T05:38:07.473Z,14.35
2018-05-03T05:48:06.816Z,14.56
2018-05-03T05:58:04.729Z,15.02
2018-05-03T06:08:02.579Z,15.27
2018-05-03T06:17:59.409Z,15.73
2018-05-03T06:27:58.525Z,16.60
2018-05-03T06:37:57.608Z,16.89
2018-05-03T06:47:53.431Z,17.10
2018-05-03T06:57:51.428Z,17.33
2018-05-03T07:07:49.414Z,17.53
2018-05-03T07:17:46.940Z,17.88
2018-05-03T07:27:44.770Z,18.14
2018-05-03T07:37:43.205Z,18.47
2018-05-03T07:47:42.050Z,18.65
2018-05-03T07:57:37.968Z,18.92
2018-05-03T08:07:29.823Z,19.51
2018-05-03T08:17:27.970Z,19.78
2018-05-03T08:27:20.524Z,19.93
2018-05-03T08:37:17.492Z,20.23
2018-05-03T08:47:14.068Z,20.65
2018-05-03T08:57:12.549Z,21.05
2018-05-03T09:07:08.829Z,21.75
2018-05-03T09:17:07.570Z,22.00
2018-05-03T09:27:03.594Z,22.15
2018-05-03T09:36:59.890Z,22.07
2018-05-03T09:46:55.798Z,22.32
2018-05-03T09:56:51.981Z,22.30
2018-05-03T10:06:47.828Z,22.74
2018-05-03T10:16:46.457Z,23.56
2018-05-03T10:26:43.228Z,23.75
2018-05-03T10:36:39.013Z,24.44
2018-05-03T10:46:21.679Z,24.83
2018-05-03T10:55:52.337Z,25.50
2018-05-03T11:05:32.295Z,25.74
2018-05-03T11:15:01.619Z,26.16
2018-05-03T11:24:38.913Z,26.32
2018-05-03T11:34:20.705Z,26.47
2018-05-03T11:43:50.726Z,27.58
2018-05-03T11:53:26.911Z,26.15
2018-05-03T12:03:05.403Z,27.45
2018-05-03T12:12:43.110Z,28.87
2018-05-03T12:22:20.093Z,27.26
2018-05-03T12:31:57.558Z,27.51
2018-05-03T12:41:35.847Z,28.19
2018-05-03T12:51:13.448Z,28.81
2018-05-03T13:00:51.628Z,29.13
2018-05-03T13:10:30.264Z,29.63
2018-05-03T13:20:09.449Z,30.59
2018-05-03T13:29:44.995Z,27.27
2018-05-03T13:39:20.069Z,28.10
2018-05-03T13:49:02.945Z,29.36
2018-05-03T13:58:39.682Z,27.49
2018-05-03T14:08:10.810Z,26.04
2018-05-03T14:17:48.205Z,27.14
2018-05-03T14:27:32.002Z,28.57
2018-05-03T14:37:08.308Z,27.95
2018-05-03T14:46:48.413Z,29.56
2018-05-03T14:56:27.790Z,29.71
2018-05-03T15:06:05.351Z,28.39
2018-05-03T15:15:35.135Z,26.07
2018-05-03T15:25:15.386Z,25.32
2018-05-03T15:34:41.276Z,24.19
2018-05-03T15:44:21.322Z,23.85
2018-05-03T15:54:08.738Z,23.55
2018-05-03T16:04:04.888Z,23.42
2018-05-03T16:13:56.967Z,23.04
2018-05-03T16:23:53.521Z,22.94
2018-05-03T16:33:45.967Z,22.83
2018-05-03T16:43:42.636Z,22.42
2018-05-03T16:53:39.027Z,21.85
2018-05-03T17:03:31.831Z,21.67
2018-05-03T17:13:28.007Z,21.41
2018-05-03T17:23:23.807Z,21.12
2018-05-03T17:33:20.940Z,20.61
2018-05-03T17:43:16.877Z,19.98
2018-05-03T17:53:14.458Z,19.58
2018-05-03T18:03:09.510Z,19.27
2018-05-03T18:13:02.420Z,18.76
2018-05-03T18:22:57.188Z,18.46
2018-05-03T18:32:50.776Z,18.19
2018-05-03T18:42:44.020Z,17.96
2018-05-03T18:52:40.252Z,17.64
2018-05-03T19:02:36.872Z,17.53
2018-05-03T19:12:34.759Z,17.30
2018-05-03T19:22:32.229Z,17.20
2018-05-03T19:32:29.495Z,16.98
2018-05-03T19:42:25.986Z,16.77
2018-05-03T19:52:23.737Z,16.59
2018-05-03T20:02:19.333Z,16.47
2018-05-03T20:12:12.845Z,16.35
2018-05-03T20:22:09.093Z,16.26
2018-05-03T20:32:04.189Z,15.99
2018-05-03T20:42:02.961Z,15.96
2018-05-03T20:51:58.699Z,15.86
2018-05-03T21:01:56.500Z,15.99
2018-05-03T21:11:54.300Z,16.20
2018-05-03T21:21:51.402Z,16.34
2018-05-03T21:31:44.148Z,16.48
2018-05-03T21:41:42.447Z,16.59
2018-05-03T21:51:38.856Z,16.63
2018-05-03T22:01:34.314Z,16.71
2018-05-03T22:11:30.385Z,16.71
2018-05-03T22:21:28.281Z,16.63
2018-05-03T22:31:24.832Z,16.47
2018-05-03T22:41:19.900Z,16.29
2018-05-03T22:51:18.332Z,16.20
2018-05-03T23:01:17.056Z,16.04
2018-05-03T23:11:13.774Z,15.83
2018-05-03T23:21:09.657Z,15.75
2018-05-03T23:31:06.167Z,15.59
2018-05-03T23:41:03.779Z,15.45
2018-05-03T23:50:59.780Z,15.30
